Strona główna
METAR-TAF:

METAR-TAF

Lotnisko :

Port lotniczy Aomori

Aomori, Japonia

Szerokość geograficzna: 40-44N, Długość geograficzna: 140-42E, wysokość: 199 m

Aktualna obserwacja pogody

Raport powstał 26 minut temu, godzina 05:00 UTC
Wiatr 5 kt od północny zachód, zmienny między zachodnio-północny zachód i północ
Temperatura 19°C
Wilgotność 21%
Ciśnienie 1023 hPa
Widzialność 10 km lub więcej
Mało chmury na wysokości 3000 ft
Rozproszone chmury

METAR: RJSA 220500Z 32005KT 290V350 9999 FEW030 SCT/// 19/M04 Q1023

czas: 14:26 (05:26 UTC)

Prognoza

Raport powstał 6 godziny i 19 minut temu, godzina 23:07 UTC
Prognoza ważna od 22 godzina 00 UTC do 23 godzina 06 UTC
Wiatr 6 kt od zachód
Widzialność 10 km lub więcej
Mało chmury na wysokości 3000 ft

TAF: RJSA 212307Z 2200/2306 26006KT 9999 FEW030

Obserwacja i prognoza pogody dla ponad 4000 lotnisk (raport METAR i TAF).

Dostępne stacje oznaczono żółtymi i czerwonymi punktami na mapie.

Najedź kursorem aby zobaczyć nazwę stacji.

Kliknij aby zobaczyć obserwacje i prognozy pogody.

Aby zmienić mapę: kliknij na zielony przycisk z czarnym krzyżykiem, aby powiększyć; na zielony przycisk z myślnikiem, aby pomniejszyć; na zielone strzałki, aby przejść do map sąsiednich.


METAR-TAF: